createdAt,value
2022-08-07T00:02:35.609Z,98884.72
2022-08-07T00:04:09.706Z,98882.38
2022-08-07T00:06:45.610Z,98885.50
2022-08-07T00:09:29.186Z,98885.44
2022-08-07T00:12:04.487Z,98885.91
2022-08-07T00:14:32.582Z,98878.91
2022-08-07T00:17:02.923Z,98883.03
2022-08-07T00:20:01.624Z,98875.00
2022-08-07T00:22:24.705Z,98878.13
2022-08-07T00:25:15.845Z,98874.28
2022-08-07T00:27:53.670Z,98885.69
2022-08-07T00:30:28.250Z,98884.91
2022-08-07T00:33:02.296Z,98888.56
2022-08-07T00:35:30.970Z,98890.13
2022-08-07T00:38:03.600Z,98887.03
2022-08-07T00:40:36.180Z,98883.94
2022-08-07T00:43:09.939Z,98893.06
2022-08-07T00:45:40.874Z,98891.72
2022-08-07T00:48:11.205Z,98897.19
2022-08-07T00:50:50.847Z,98900.06
2022-08-07T00:53:21.182Z,98895.41
2022-08-07T00:56:00.562Z,98890.50
2022-08-07T00:58:32.706Z,98893.91
2022-08-07T01:01:00.961Z,98907.94
2022-08-07T01:03:56.981Z,98902.75
2022-08-07T01:06:19.171Z,98896.53
2022-08-07T01:08:53.095Z,98905.13
2022-08-07T01:12:09.388Z,98899.16
2022-08-07T01:14:10.690Z,98914.00
2022-08-07T01:16:42.973Z,98902.84
2022-08-07T01:19:19.264Z,98904.41
2022-08-07T01:21:53.481Z,98914.28
2022-08-07T01:24:30.553Z,98912.22
2022-08-07T01:27:01.556Z,98915.66
2022-08-07T01:29:33.888Z,98918.25
2022-08-07T01:32:05.799Z,98921.13
2022-08-07T01:34:47.167Z,98925.81
2022-08-07T01:37:18.988Z,98931.00
2022-08-07T01:39:50.222Z,98920.38
2022-08-07T01:42:37.994Z,98934.91
2022-08-07T01:45:18.312Z,98931.78
2022-08-07T01:48:18.339Z,98933.84
2022-08-07T01:50:47.517Z,98935.16
2022-08-07T01:54:12.326Z,98934.38
2022-08-07T01:56:17.637Z,98933.88
2022-08-07T01:58:58.577Z,98933.88
2022-08-07T02:02:01.607Z,98935.19
2022-08-07T02:04:39.961Z,98953.09
2022-08-07T02:07:35.740Z,98953.38
2022-08-07T02:13:19.312Z,98953.88
2022-08-07T02:16:11.858Z,98947.13
2022-08-07T02:18:46.787Z,98948.69
2022-08-07T02:21:19.312Z,98946.38
2022-08-07T02:23:49.361Z,98944.81
2022-08-07T02:26:33.082Z,98940.66
2022-08-07T02:29:13.720Z,98946.13
2022-08-07T02:31:44.003Z,98949.00
2022-08-07T02:34:18.088Z,98944.09
2022-08-07T02:36:52.727Z,98942.50
2022-08-07T02:39:43.112Z,98954.97
2022-08-07T02:42:16.368Z,98942.00
2022-08-07T02:44:52.473Z,98936.81
2022-08-07T02:47:23.902Z,98947.69
2022-08-07T02:50:03.958Z,98947.69
2022-08-07T02:52:54.834Z,98953.13
2022-08-07T02:56:03.681Z,98968.69
2022-08-07T02:58:27.920Z,98963.50
2022-08-07T03:01:04.173Z,98966.84
2022-08-07T03:03:49.503Z,98971.00
2022-08-07T03:06:25.861Z,98977.72
2022-08-07T03:09:11.349Z,98974.09
2022-08-07T03:11:52.390Z,98977.22
2022-08-07T03:14:31.007Z,98966.84
2022-08-07T03:16:59.731Z,98969.44
2022-08-07T03:19:36.927Z,98971.78
2022-08-07T03:22:08.471Z,98975.63
2022-08-07T03:24:47.929Z,98986.00
2022-08-07T03:27:30.441Z,98974.09
2022-08-07T03:30:01.182Z,98980.03
2022-08-07T03:32:39.985Z,98990.16
2022-08-07T03:35:26.323Z,98998.44
2022-08-07T03:38:02.055Z,99007.25
2022-08-07T03:40:36.492Z,99013.72
2022-08-07T03:43:14.628Z,99011.38
2022-08-07T03:45:51.829Z,99016.56
2022-08-07T03:48:26.119Z,99021.75
2022-08-07T03:50:59.511Z,99016.31
2022-08-07T03:54:15.161Z,99010.88
2022-08-07T03:56:33.060Z,99017.91
2022-08-07T03:59:13.113Z,99021.53
2022-08-07T04:01:48.446Z,99014.81
2022-08-07T04:04:23.827Z,99022.31
2022-08-07T04:06:58.330Z,99023.88
2022-08-07T04:09:45.117Z,99015.06
2022-08-07T04:12:27.405Z,99023.34
2022-08-07T04:15:00.291Z,99021.03
2022-08-07T04:18:58.500Z,99033.72
2022-08-07T04:20:22.472Z,99033.97
2022-08-07T04:23:01.953Z,99034.75
2022-08-07T04:25:40.974Z,99040.47
2022-08-07T04:28:13.283Z,99045.69
2022-08-07T04:30:55.584Z,99042.28
2022-08-07T04:33:35.281Z,99047.50
2022-08-07T04:36:10.153Z,99043.13
2022-08-07T04:38:40.850Z,99045.44
2022-08-07T04:41:10.051Z,99042.56
2022-08-07T04:44:14.759Z,99047.25
2022-08-07T04:46:59.639Z,99038.44
2022-08-07T04:50:04.571Z,99047.25
2022-08-07T04:54:01.410Z,99048.28
2022-08-07T04:58:12.789Z,99039.97
2022-08-07T05:00:11.956Z,99049.31
2022-08-07T05:04:00.086Z,99058.91
2022-08-07T05:06:42.964Z,99057.38
2022-08-07T05:09:59.557Z,99066.44
2022-08-07T05:12:46.261Z,99068.50
2022-08-07T05:15:31.362Z,99065.38
2022-08-07T05:18:23.728Z,99070.59
2022-08-07T05:20:56.472Z,99069.03
2022-08-07T05:23:57.932Z,99068.22
2022-08-07T05:26:29.876Z,99058.63
2022-08-07T05:29:10.254Z,99062.81
2022-08-07T05:31:51.119Z,99054.25
2022-08-07T05:34:27.678Z,99062.28
2022-08-07T05:36:57.867Z,99068.00
2022-08-07T05:40:13.485Z,99074.44
2022-08-07T05:42:33.894Z,99085.09
2022-08-07T05:45:19.845Z,99089.78
2022-08-07T05:48:02.555Z,99098.84
2022-08-07T05:50:39.561Z,99095.00
2022-08-07T05:54:13.621Z,99087.72
2022-08-07T05:56:06.091Z,99100.97
2022-08-07T05:58:49.231Z,99103.84
2022-08-07T06:01:26.254Z,99092.44
2022-08-07T06:04:01.390Z,99105.19
2022-08-07T06:06:37.240Z,99103.88
2022-08-07T06:09:09.258Z,99112.72
2022-08-07T06:11:43.936Z,99117.38
2022-08-07T06:14:21.336Z,99108.31
2022-08-07T06:17:01.232Z,99102.59
2022-08-07T06:19:52.130Z,99104.41
2022-08-07T06:22:38.328Z,99108.81
2022-08-07T06:25:25.899Z,99117.91
2022-08-07T06:28:07.773Z,99123.09
2022-08-07T06:30:42.701Z,99115.56
2022-08-07T06:33:19.679Z,99114.78
2022-08-07T06:36:06.829Z,99116.09
2022-08-07T06:38:59.585Z,99118.97
2022-08-07T06:42:01.586Z,99120.00
2022-08-07T06:44:53.534Z,99113.78
2022-08-07T06:47:23.097Z,99115.88
2022-08-07T06:49:58.865Z,99118.72
2022-08-07T06:52:39.547Z,99115.34
2022-08-07T06:55:34.391Z,99111.19
2022-08-07T06:58:16.575Z,99100.25
2022-08-07T07:00:55.885Z,99107.75
2022-08-07T07:03:39.573Z,99111.13
2022-08-07T07:06:14.013Z,99099.19
2022-08-07T07:08:54.412Z,99103.63
2022-08-07T07:12:08.478Z,99113.97
2022-08-07T07:14:14.108Z,99109.78
2022-08-07T07:16:51.016Z,99115.78
2022-08-07T07:19:55.479Z,99115.00
2022-08-07T07:22:36.007Z,99110.31
2022-08-07T07:26:30.773Z,99120.44
2022-08-07T07:28:42.065Z,99104.78
2022-08-07T07:31:17.370Z,99108.66
2022-08-07T07:33:57.151Z,99107.34
2022-08-07T07:36:32.649Z,99102.84
2022-08-07T07:39:04.900Z,99108.84
2022-08-07T07:42:02.075Z,99098.69
2022-08-07T07:44:26.787Z,99104.69
2022-08-07T07:47:02.242Z,99110.59
2022-08-07T07:50:35.566Z,99104.06
2022-08-07T07:52:37.829Z,99112.13
2022-08-07T07:55:11.442Z,99100.59
2022-08-07T07:57:51.518Z,99098.97
2022-08-07T08:00:29.583Z,99105.88
2022-08-07T08:03:16.805Z,99102.38
2022-08-07T08:06:00.316Z,99095.63
2022-08-07T08:08:36.839Z,99096.09
2022-08-07T08:11:16.029Z,99105.13
2022-08-07T08:13:54.906Z,99101.34
2022-08-07T08:16:35.433Z,99107.59
2022-08-07T08:19:18.048Z,99105.03
2022-08-07T08:22:18.141Z,99105.44
2022-08-07T08:25:42.513Z,99105.00
2022-08-07T08:28:37.670Z,99101.22
2022-08-07T08:31:15.986Z,99100.94
2022-08-07T08:33:55.405Z,99101.38
2022-08-07T08:36:30.586Z,99102.44
2022-08-07T08:39:02.630Z,99104.00
2022-08-07T08:41:57.733Z,99102.53
2022-08-07T08:44:51.560Z,99096.25
2022-08-07T08:47:31.613Z,99107.75
2022-08-07T08:50:28.624Z,99112.91
2022-08-07T08:53:29.507Z,99103.09
2022-08-07T08:56:04.590Z,99103.91
2022-08-07T08:59:06.432Z,99103.44
2022-08-07T09:02:16.077Z,99110.03
2022-08-07T09:05:26.432Z,99113.13
2022-08-07T09:08:32.856Z,99112.38
2022-08-07T09:11:43.689Z,99111.25
2022-08-07T09:14:50.622Z,99110.38
2022-08-07T09:17:59.337Z,99117.56
2022-08-07T09:21:06.358Z,99103.44
2022-08-07T09:24:31.055Z,99104.78
2022-08-07T09:27:59.812Z,99094.31
2022-08-07T09:30:59.034Z,99084.25
2022-08-07T09:34:21.558Z,99079.69
2022-08-07T09:36:58.296Z,99087.66
2022-08-07T09:39:58.001Z,99079.94
2022-08-07T09:43:09.661Z,99076.38
2022-08-07T09:47:55.747Z,99067.78
2022-08-07T09:50:03.746Z,99051.53
2022-08-07T09:52:51.834Z,99054.44
2022-08-07T09:56:02.398Z,99044.84
2022-08-07T09:58:32.193Z,99045.78
2022-08-07T10:01:50.323Z,99041.06
2022-08-07T10:04:52.921Z,99039.69
2022-08-07T10:08:03.075Z,99030.97
2022-08-07T10:11:16.772Z,99024.97
2022-08-07T10:14:03.885Z,99029.81
2022-08-07T10:17:14.133Z,99027.06
2022-08-07T10:20:00.175Z,99024.28
2022-08-07T10:23:09.653Z,99025.59
2022-08-07T10:26:31.066Z,99027.97
2022-08-07T10:29:35.342Z,99022.09
2022-08-07T10:32:52.793Z,99020.59
2022-08-07T10:35:55.506Z,99017.25
2022-08-07T10:38:35.875Z,99009.97
2022-08-07T10:41:46.575Z,99013.91
2022-08-07T10:45:11.907Z,98990.22
2022-08-07T10:47:52.665Z,98999.47
2022-08-07T10:50:44.892Z,98998.38
2022-08-07T10:53:51.030Z,98995.59
2022-08-07T10:56:37.095Z,98993.06
2022-08-07T10:59:38.779Z,98998.94
2022-08-07T11:02:37.568Z,98995.31
2022-08-07T11:05:44.840Z,98985.81
2022-08-07T11:08:30.266Z,98981.44
2022-08-07T11:11:10.516Z,98980.84
2022-08-07T11:14:45.364Z,98973.06
2022-08-07T11:17:43.440Z,98977.59
2022-08-07T11:20:24.658Z,98973.03
2022-08-07T11:23:38.635Z,98966.41
2022-08-07T11:26:27.003Z,98963.41
2022-08-07T11:29:43.048Z,98960.16
2022-08-07T11:32:15.427Z,98954.31
2022-08-07T11:36:00.188Z,98942.78
2022-08-07T11:39:59.441Z,98949.44
2022-08-07T11:43:03.159Z,98949.69
2022-08-07T11:46:12.397Z,98932.09
2022-08-07T11:49:50.427Z,98941.22
2022-08-07T11:52:35.648Z,98924.75
2022-08-07T11:55:18.869Z,98928.78
2022-08-07T11:58:33.168Z,98922.44
2022-08-07T12:01:59.158Z,98932.75
2022-08-07T12:05:28.704Z,98916.09
2022-08-07T12:08:34.642Z,98930.00
2022-08-07T12:11:21.553Z,98918.88
2022-08-07T12:14:04.028Z,98926.16
2022-08-07T12:16:42.759Z,98925.97
2022-08-07T12:19:14.655Z,98917.78
2022-08-07T12:22:39.608Z,98925.66
2022-08-07T12:26:03.021Z,98915.03
2022-08-07T12:29:03.739Z,98921.34
2022-08-07T12:31:52.905Z,98919.03
2022-08-07T12:34:31.752Z,98907.78
2022-08-07T12:37:08.739Z,98911.63
2022-08-07T12:39:50.736Z,98908.03
2022-08-07T12:42:27.905Z,98912.19
2022-08-07T12:45:12.194Z,98907.28
2022-08-07T12:48:04.353Z,98894.94
2022-08-07T12:50:57.529Z,98900.03
2022-08-07T12:54:36.477Z,98891.19
2022-08-07T12:56:51.231Z,98888.41
2022-08-07T12:59:53.890Z,98880.19
2022-08-07T13:02:33.031Z,98884.09
2022-08-07T13:06:03.282Z,98886.88
2022-08-07T13:10:21.366Z,98886.53
2022-08-07T13:12:52.343Z,98868.31
2022-08-07T13:15:42.824Z,98878.59
2022-08-07T13:18:51.060Z,98881.47
2022-08-07T13:21:50.077Z,98868.75
2022-08-07T13:24:43.924Z,98862.31
2022-08-07T13:28:14.012Z,98862.69
2022-08-07T13:30:40.439Z,98873.78
2022-08-07T13:34:31.596Z,98853.00
2022-08-07T13:36:53.524Z,98857.88
2022-08-07T13:40:32.751Z,98859.81
2022-08-07T13:42:38.874Z,98852.22
2022-08-07T13:46:07.131Z,98843.69
2022-08-07T13:48:07.758Z,98838.38
2022-08-07T13:51:00.498Z,98844.84
2022-08-07T13:53:59.414Z,98824.88
2022-08-07T13:56:35.942Z,98822.19
2022-08-07T13:59:32.022Z,98810.31
2022-08-07T14:02:10.757Z,98810.44
2022-08-07T14:05:02.453Z,98806.59
2022-08-07T14:08:00.194Z,98816.34
2022-08-07T14:10:41.998Z,98815.56
2022-08-07T14:13:18.707Z,98806.91
2022-08-07T14:16:15.412Z,98810.63
2022-08-07T14:18:57.469Z,98815.97
2022-08-07T14:22:03.247Z,98807.47
2022-08-07T14:24:51.371Z,98801.56
2022-08-07T14:28:19.892Z,98797.69
2022-08-07T14:30:32.568Z,98795.28
2022-08-07T14:33:04.437Z,98791.03
2022-08-07T14:35:44.867Z,98780.53
2022-08-07T14:38:30.966Z,98786.13
2022-08-07T14:41:05.285Z,98779.56
2022-08-07T14:43:59.383Z,98778.06
2022-08-07T14:46:33.336Z,98785.97
2022-08-07T14:49:17.621Z,98774.66
2022-08-07T14:54:50.022Z,98781.09
2022-08-07T14:57:28.867Z,98779.84
2022-08-07T15:00:20.861Z,98778.41
2022-08-07T15:03:16.718Z,98766.78
2022-08-07T15:05:54.202Z,98771.94
2022-08-07T15:08:32.289Z,98762.28
2022-08-07T15:11:14.945Z,98758.78
2022-08-07T15:13:57.677Z,98761.06
2022-08-07T15:16:54.524Z,98759.88
2022-08-07T15:20:30.177Z,98756.31
2022-08-07T15:22:31.117Z,98761.28
2022-08-07T15:31:08.205Z,98759.63
2022-08-07T15:33:42.730Z,98763.63
2022-08-07T15:36:14.487Z,98764.34
2022-08-07T15:39:10.565Z,98756.72
2022-08-07T15:44:52.524Z,98754.78
2022-08-07T15:48:00.162Z,98744.19
2022-08-07T15:51:01.584Z,98744.41
2022-08-07T15:53:52.417Z,98742.97
2022-08-07T15:56:40.638Z,98741.25
2022-08-07T15:59:20.261Z,98745.66
2022-08-07T16:02:15.205Z,98748.81
2022-08-07T16:04:45.302Z,98748.09
2022-08-07T16:08:29.240Z,98744.53
2022-08-07T16:10:25.311Z,98747.38
2022-08-07T16:13:57.757Z,98748.31
2022-08-07T16:16:48.372Z,98742.84
2022-08-07T16:19:42.464Z,98739.75
2022-08-07T16:22:54.835Z,98744.72
2022-08-07T16:25:53.062Z,98746.72
2022-08-07T16:29:18.103Z,98752.00
2022-08-07T16:31:50.003Z,98748.31
2022-08-07T16:34:48.378Z,98748.31
2022-08-07T16:38:04.365Z,98748.31
2022-08-07T16:41:01.592Z,98745.38
2022-08-07T16:44:47.325Z,98756.91
2022-08-07T16:47:56.540Z,98741.63
2022-08-07T16:51:13.519Z,98738.47
2022-08-07T16:54:10.760Z,98738.75
2022-08-07T16:56:55.643Z,98738.75
2022-08-07T16:59:47.891Z,98751.44
2022-08-07T17:02:51.142Z,98734.16
2022-08-07T17:06:20.007Z,98748.97
2022-08-07T17:09:14.336Z,98757.38
2022-08-07T17:12:04.842Z,98752.97
2022-08-07T17:15:09.189Z,98761.50
2022-08-07T17:18:11.529Z,98752.25
2022-08-07T17:20:42.173Z,98761.97
2022-08-07T17:23:32.410Z,98764.59
2022-08-07T17:26:49.852Z,98767.06
2022-08-07T17:30:15.858Z,98761.81
2022-08-07T17:34:08.791Z,98768.75
2022-08-07T17:36:13.727Z,98776.28
2022-08-07T17:39:10.720Z,98770.25
2022-08-07T17:42:02.775Z,98786.06
2022-08-07T17:44:50.371Z,98782.34
2022-08-07T17:47:54.053Z,98792.28
2022-08-07T17:50:47.005Z,98787.91
2022-08-07T17:53:23.943Z,98803.25
2022-08-07T17:56:31.689Z,98796.09
2022-08-07T17:59:16.986Z,98803.09
2022-08-07T18:02:10.911Z,98806.22
2022-08-07T18:05:21.212Z,98801.47
2022-08-07T18:09:00.684Z,98815.59
2022-08-07T18:12:16.166Z,98813.69
2022-08-07T18:14:59.958Z,98819.91
2022-08-07T18:18:45.426Z,98820.00
2022-08-07T18:21:30.673Z,98811.91
2022-08-07T18:24:34.423Z,98828.94
2022-08-07T18:27:21.223Z,98825.66
2022-08-07T18:30:31.672Z,98824.50
2022-08-07T18:33:39.010Z,98840.53
2022-08-07T18:37:09.624Z,98843.31
2022-08-07T18:40:07.445Z,98840.13
2022-08-07T18:43:57.761Z,98850.28
2022-08-07T18:46:58.305Z,98840.22
2022-08-07T18:50:32.401Z,98859.16
2022-08-07T18:53:06.125Z,98856.06
2022-08-07T18:56:02.169Z,98870.25
2022-08-07T18:58:51.028Z,98870.63
2022-08-07T19:02:17.989Z,98875.09
2022-08-07T19:06:02.674Z,98882.84
2022-08-07T19:08:56.355Z,98886.41
2022-08-07T19:12:08.045Z,98881.75
2022-08-07T19:14:51.080Z,98892.19
2022-08-07T19:17:55.698Z,98888.03
2022-08-07T19:20:32.710Z,98880.63
2022-08-07T19:23:57.310Z,98890.97
2022-08-07T19:26:22.999Z,98902.28
2022-08-07T19:30:57.375Z,98914.84
2022-08-07T19:32:17.705Z,98904.75
2022-08-07T19:34:55.455Z,98903.53
2022-08-07T19:37:25.411Z,98910.91
2022-08-07T19:40:17.070Z,98906.06
2022-08-07T19:43:01.081Z,98910.25
2022-08-07T19:46:04.896Z,98906.41
2022-08-07T19:48:44.423Z,98903.09
2022-08-07T19:51:51.202Z,98901.09
2022-08-07T19:54:33.607Z,98901.66
2022-08-07T19:58:01.163Z,98908.19
2022-08-07T20:00:09.028Z,98916.84
2022-08-07T20:02:52.121Z,98914.53
2022-08-07T20:05:30.954Z,98934.00
2022-08-07T20:08:24.984Z,98928.34
2022-08-07T20:11:09.639Z,98922.69
2022-08-07T20:13:56.521Z,98924.56
2022-08-07T20:16:32.354Z,98923.34
2022-08-07T20:19:12.009Z,98926.75
2022-08-07T20:21:48.131Z,98929.41
2022-08-07T20:24:32.478Z,98925.53
2022-08-07T20:27:05.064Z,98929.19
2022-08-07T20:30:07.356Z,98924.81
2022-08-07T20:32:46.793Z,98938.59
2022-08-07T20:35:26.469Z,98949.53
2022-08-07T20:37:58.964Z,98957.13
2022-08-07T20:40:33.861Z,98964.44
2022-08-07T20:43:14.399Z,98961.56
2022-08-07T20:46:28.203Z,98969.38
2022-08-07T20:49:00.782Z,98972.56
2022-08-07T20:51:35.793Z,98980.47
2022-08-07T20:54:15.315Z,98963.13
2022-08-07T20:57:05.805Z,98970.91
2022-08-07T21:00:06.868Z,98971.44
2022-08-07T21:02:53.951Z,98971.75
2022-08-07T21:05:51.298Z,98976.47
2022-08-07T21:08:38.031Z,98973.34
2022-08-07T21:11:16.884Z,98971.81
2022-08-07T21:14:20.087Z,98983.22
2022-08-07T21:18:00.939Z,98980.38
2022-08-07T21:19:51.574Z,98988.97
2022-08-07T21:22:51.367Z,98977.31
2022-08-07T21:25:39.084Z,98973.41
2022-08-07T21:28:47.591Z,98977.03
2022-08-07T21:31:49.987Z,98979.91
2022-08-07T21:34:32.884Z,98972.88
2022-08-07T21:37:25.955Z,98983.00
2022-08-07T21:40:23.378Z,98973.41
2022-08-07T21:43:04.592Z,98979.97
2022-08-07T21:46:09.853Z,98971.94
2022-08-07T21:50:02.633Z,98984.44
2022-08-07T21:53:00.126Z,98983.41
2022-08-07T21:56:01.487Z,98982.16
2022-08-07T21:58:53.117Z,98977.19
2022-08-07T22:02:11.478Z,98977.75
2022-08-07T22:04:31.563Z,98984.22
2022-08-07T22:07:12.921Z,98987.34
2022-08-07T22:09:54.213Z,98975.16
2022-08-07T22:12:38.668Z,98985.03
2022-08-07T22:16:42.141Z,98983.72
2022-08-07T22:18:19.676Z,98985.31
2022-08-07T22:20:58.543Z,98994.91
2022-08-07T22:23:44.975Z,98991.78
2022-08-07T22:26:44.215Z,98997.00
2022-08-07T22:29:49.478Z,98986.06
2022-08-07T22:32:46.228Z,98985.84
2022-08-07T22:35:14.273Z,98986.84
2022-08-07T22:38:05.373Z,98985.59
2022-08-07T22:40:42.422Z,98986.34
2022-08-07T22:43:15.997Z,98983.22
2022-08-07T22:47:03.104Z,98995.94
2022-08-07T22:49:33.640Z,98996.75
2022-08-07T22:52:13.074Z,98990.22
2022-08-07T22:55:53.821Z,98993.31
2022-08-07T22:58:28.174Z,98994.88
2022-08-07T23:01:49.602Z,98992.81
2022-08-07T23:04:56.854Z,98990.44
2022-08-07T23:08:45.824Z,98994.34
2022-08-07T23:11:45.792Z,98991.75
2022-08-07T23:14:40.763Z,98992.78
2022-08-07T23:18:18.027Z,98997.94
2022-08-07T23:21:16.210Z,98993.53
2022-08-07T23:24:16.752Z,98998.72
2022-08-07T23:27:18.637Z,98999.72
2022-08-07T23:30:39.545Z,99000.22
2022-08-07T23:34:34.603Z,98999.41
2022-08-07T23:37:19.096Z,98990.09
2022-08-07T23:40:09.762Z,98998.34
2022-08-07T23:43:07.625Z,98997.25
2022-08-07T23:46:10.693Z,98990.25
2022-08-07T23:49:19.360Z,98988.44
2022-08-07T23:53:06.384Z,98994.16
2022-08-07T23:55:51.909Z,98991.53
2022-08-07T23:58:26.205Z,98992.06
